sensor_id;sensor_type;location;lat;lon;timestamp;P1;durP1;ratioP1;P2;durP2;ratioP2
17193;SDS011;8713;48.388;10.928;2022-08-19T02:38:44;7.53;;;4.50;;
17193;SDS011;8713;48.388;10.928;2022-08-19T02:39:54;5.07;;;4.00;;
17193;SDS011;8713;48.388;10.928;2022-08-19T02:41:05;6.32;;;4.50;;
17193;SDS011;8713;48.388;10.928;2022-08-19T02:42:20;6.72;;;5.20;;
17193;SDS011;8713;48.388;10.928;2022-08-19T02:43:30;10.60;;;5.60;;
17193;SDS011;8713;48.388;10.928;2022-08-19T02:44:41;9.05;;;5.18;;
17193;SDS011;8713;48.388;10.928;2022-08-19T02:45:51;7.15;;;5.13;;
17193;SDS011;8713;48.388;10.928;2022-08-19T02:47:00;7.22;;;5.05;;
17193;SDS011;8713;48.388;10.928;2022-08-19T02:48:10;7.40;;;5.15;;
17193;SDS011;8713;48.388;10.928;2022-08-19T02:49:19;6.38;;;4.63;;
17193;SDS011;8713;48.388;10.928;2022-08-19T02:50:29;7.72;;;5.15;;
17193;SDS011;8713;48.388;10.928;2022-08-19T02:51:39;7.30;;;4.93;;
17193;SDS011;8713;48.388;10.928;2022-08-19T02:52:52;6.15;;;4.63;;
17193;SDS011;8713;48.388;10.928;2022-08-19T02:54:02;6.15;;;4.55;;
17193;SDS011;8713;48.388;10.928;2022-08-19T02:55:13;6.47;;;4.68;;
17193;SDS011;8713;48.388;10.928;2022-08-19T02:56:22;6.80;;;4.78;;
17193;SDS011;8713;48.388;10.928;2022-08-19T02:57:33;6.32;;;4.53;;
17193;SDS011;8713;48.388;10.928;2022-08-19T02:58:43;6.22;;;4.72;;
17193;SDS011;8713;48.388;10.928;2022-08-19T02:59:52;6.03;;;4.75;;
17193;SDS011;8713;48.388;10.928;2022-08-19T03:01:02;6.63;;;5.07;;
17193;SDS011;8713;48.388;10.928;2022-08-19T03:02:11;6.65;;;4.63;;
17193;SDS011;8713;48.388;10.928;2022-08-19T03:03:21;7.57;;;5.75;;
17193;SDS011;8713;48.388;10.928;2022-08-19T03:04:30;7.35;;;5.30;;
17193;SDS011;8713;48.388;10.928;2022-08-19T03:05:40;8.25;;;5.57;;
17193;SDS011;8713;48.388;10.928;2022-08-19T03:06:50;8.30;;;5.55;;
17193;SDS011;8713;48.388;10.928;2022-08-19T03:08:00;7.80;;;5.53;;
17193;SDS011;8713;48.388;10.928;2022-08-19T03:09:10;6.65;;;4.93;;
17193;SDS011;8713;48.388;10.928;2022-08-19T03:10:19;7.22;;;5.72;;
17193;SDS011;8713;48.388;10.928;2022-08-19T03:11:30;8.55;;;6.03;;
17193;SDS011;8713;48.388;10.928;2022-08-19T03:12:40;8.68;;;6.38;;
17193;SDS011;8713;48.388;10.928;2022-08-19T03:13:50;10.65;;;6.30;;
17193;SDS011;8713;48.388;10.928;2022-08-19T03:15:00;9.38;;;6.45;;
17193;SDS011;8713;48.388;10.928;2022-08-19T03:16:10;8.93;;;6.40;;
17193;SDS011;8713;48.388;10.928;2022-08-19T03:17:20;8.52;;;5.75;;
17193;SDS011;8713;48.388;10.928;2022-08-19T03:18:30;9.50;;;6.18;;
17193;SDS011;8713;48.388;10.928;2022-08-19T03:19:39;11.75;;;6.25;;
17193;SDS011;8713;48.388;10.928;2022-08-19T03:20:49;10.38;;;6.20;;
17193;SDS011;8713;48.388;10.928;2022-08-19T03:22:03;7.95;;;5.80;;
17193;SDS011;8713;48.388;10.928;2022-08-19T03:23:13;9.65;;;6.43;;
17193;SDS011;8713;48.388;10.928;2022-08-19T03:24:24;10.02;;;7.10;;
17193;SDS011;8713;48.388;10.928;2022-08-19T03:25:37;10.52;;;7.28;;
17193;SDS011;8713;48.388;10.928;2022-08-19T03:26:52;10.57;;;7.35;;
17193;SDS011;8713;48.388;10.928;2022-08-19T03:28:07;12.25;;;7.60;;
17193;SDS011;8713;48.388;10.928;2022-08-19T03:29:17;11.57;;;8.13;;
17193;SDS011;8713;48.388;10.928;2022-08-19T03:30:27;11.35;;;7.80;;
17193;SDS011;8713;48.388;10.928;2022-08-19T03:31:36;11.10;;;7.43;;
17193;SDS011;8713;48.388;10.928;2022-08-19T03:32:46;9.95;;;7.28;;
17193;SDS011;8713;48.388;10.928;2022-08-19T03:33:56;12.15;;;7.32;;
17193;SDS011;8713;48.388;10.928;2022-08-19T03:35:06;14.75;;;8.57;;
17193;SDS011;8713;48.388;10.928;2022-08-19T03:36:19;13.00;;;8.32;;
17193;SDS011;8713;48.388;10.928;2022-08-19T03:37:32;9.93;;;7.18;;
17193;SDS011;8713;48.388;10.928;2022-08-19T03:38:43;12.05;;;7.80;;
17193;SDS011;8713;48.388;10.928;2022-08-19T03:39:57;11.18;;;8.10;;
17193;SDS011;8713;48.388;10.928;2022-08-19T03:41:07;13.90;;;8.07;;
17193;SDS011;8713;48.388;10.928;2022-08-19T03:42:20;12.93;;;7.97;;
17193;SDS011;8713;48.388;10.928;2022-08-19T03:43:30;13.93;;;9.15;;
17193;SDS011;8713;48.388;10.928;2022-08-19T03:44:39;13.38;;;8.63;;
17193;SDS011;8713;48.388;10.928;2022-08-19T03:45:59;12.48;;;8.30;;
17193;SDS011;8713;48.388;10.928;2022-08-19T03:47:13;12.43;;;8.02;;
17193;SDS011;8713;48.388;10.928;2022-08-19T03:48:25;12.02;;;8.35;;
17193;SDS011;8713;48.388;10.928;2022-08-19T03:49:34;13.80;;;8.38;;
17193;SDS011;8713;48.388;10.928;2022-08-19T03:50:44;12.15;;;8.15;;
17193;SDS011;8713;48.388;10.928;2022-08-19T03:51:54;11.80;;;8.25;;
17193;SDS011;8713;48.388;10.928;2022-08-19T03:53:06;11.90;;;8.63;;
17193;SDS011;8713;48.388;10.928;2022-08-19T03:54:18;13.52;;;9.63;;
17193;SDS011;8713;48.388;10.928;2022-08-19T03:55:30;13.27;;;9.38;;
17193;SDS011;8713;48.388;10.928;2022-08-19T03:56:40;13.68;;;8.88;;
17193;SDS011;8713;48.388;10.928;2022-08-19T03:57:50;13.02;;;8.45;;
17193;SDS011;8713;48.388;10.928;2022-08-19T03:59:00;14.50;;;9.95;;
17193;SDS011;8713;48.388;10.928;2022-08-19T04:00:10;13.80;;;9.20;;
17193;SDS011;8713;48.388;10.928;2022-08-19T04:01:21;12.55;;;9.00;;
17193;SDS011;8713;48.388;10.928;2022-08-19T04:02:33;13.70;;;8.77;;
17193;SDS011;8713;48.388;10.928;2022-08-19T04:03:42;13.80;;;9.02;;
17193;SDS011;8713;48.388;10.928;2022-08-19T04:04:53;13.73;;;9.10;;
17193;SDS011;8713;48.388;10.928;2022-08-19T04:06:11;13.20;;;8.90;;
17193;SDS011;8713;48.388;10.928;2022-08-19T04:07:26;12.55;;;8.93;;
17193;SDS011;8713;48.388;10.928;2022-08-19T04:08:35;15.05;;;9.18;;
17193;SDS011;8713;48.388;10.928;2022-08-19T04:09:44;12.80;;;8.52;;
17193;SDS011;8713;48.388;10.928;2022-08-19T04:10:54;13.73;;;9.40;;
17193;SDS011;8713;48.388;10.928;2022-08-19T04:12:04;12.52;;;8.98;;
17193;SDS011;8713;48.388;10.928;2022-08-19T04:13:15;14.32;;;9.48;;
17193;SDS011;8713;48.388;10.928;2022-08-19T04:14:27;14.00;;;9.68;;
17193;SDS011;8713;48.388;10.928;2022-08-19T04:15:40;15.18;;;9.63;;
17193;SDS011;8713;48.388;10.928;2022-08-19T04:16:52;15.68;;;9.68;;
17193;SDS011;8713;48.388;10.928;2022-08-19T04:18:01;13.90;;;9.43;;
17193;SDS011;8713;48.388;10.928;2022-08-19T04:19:11;13.25;;;9.25;;
17193;SDS011;8713;48.388;10.928;2022-08-19T04:20:21;12.52;;;8.80;;
17193;SDS011;8713;48.388;10.928;2022-08-19T04:21:31;12.65;;;9.07;;
17193;SDS011;8713;48.388;10.928;2022-08-19T04:22:41;11.88;;;8.45;;
17193;SDS011;8713;48.388;10.928;2022-08-19T04:23:51;12.43;;;8.40;;
17193;SDS011;8713;48.388;10.928;2022-08-19T04:25:00;13.68;;;8.55;;
17193;SDS011;8713;48.388;10.928;2022-08-19T04:26:16;13.93;;;8.80;;
17193;SDS011;8713;48.388;10.928;2022-08-19T04:27:30;13.35;;;8.65;;
17193;SDS011;8713;48.388;10.928;2022-08-19T04:28:39;12.18;;;8.23;;
17193;SDS011;8713;48.388;10.928;2022-08-19T04:29:49;12.80;;;8.38;;
17193;SDS011;8713;48.388;10.928;2022-08-19T04:30:58;10.52;;;7.72;;
17193;SDS011;8713;48.388;10.928;2022-08-19T04:32:08;12.32;;;8.73;;
17193;SDS011;8713;48.388;10.928;2022-08-19T04:33:19;14.25;;;9.43;;
17193;SDS011;8713;48.388;10.928;2022-08-19T04:34:33;12.73;;;8.43;;
17193;SDS011;8713;48.388;10.928;2022-08-19T04:35:44;12.20;;;7.95;;
17193;SDS011;8713;48.388;10.928;2022-08-19T04:36:56;13.35;;;8.77;;
17193;SDS011;8713;48.388;10.928;2022-08-19T04:38:07;11.32;;;8.05;;
17193;SDS011;8713;48.388;10.928;2022-08-19T04:39:19;11.05;;;7.40;;
17193;SDS011;8713;48.388;10.928;2022-08-19T04:40:52;10.48;;;7.93;;
17193;SDS011;8713;48.388;10.928;2022-08-19T04:42:20;11.95;;;8.32;;
17193;SDS011;8713;48.388;10.928;2022-08-19T04:43:48;13.93;;;8.85;;
17193;SDS011;8713;48.388;10.928;2022-08-19T04:44:57;12.95;;;8.55;;
17193;SDS011;8713;48.388;10.928;2022-08-19T04:46:08;12.57;;;8.07;;
17193;SDS011;8713;48.388;10.928;2022-08-19T04:47:21;12.45;;;8.73;;
17193;SDS011;8713;48.388;10.928;2022-08-19T04:48:31;12.60;;;8.43;;
17193;SDS011;8713;48.388;10.928;2022-08-19T04:49:40;12.32;;;8.40;;
17193;SDS011;8713;48.388;10.928;2022-08-19T04:50:50;12.48;;;8.35;;
17193;SDS011;8713;48.388;10.928;2022-08-19T04:52:05;14.35;;;9.48;;
17193;SDS011;8713;48.388;10.928;2022-08-19T04:53:15;13.18;;;9.00;;
17193;SDS011;8713;48.388;10.928;2022-08-19T04:54:24;12.98;;;8.98;;
17193;SDS011;8713;48.388;10.928;2022-08-19T04:55:37;12.15;;;8.85;;
17193;SDS011;8713;48.388;10.928;2022-08-19T04:56:51;13.57;;;8.57;;
17193;SDS011;8713;48.388;10.928;2022-08-19T04:58:01;13.40;;;9.05;;
17193;SDS011;8713;48.388;10.928;2022-08-19T04:59:11;13.23;;;8.38;;
17193;SDS011;8713;48.388;10.928;2022-08-19T05:00:20;12.57;;;9.02;;
17193;SDS011;8713;48.388;10.928;2022-08-19T05:01:31;16.08;;;8.85;;
17193;SDS011;8713;48.388;10.928;2022-08-19T05:02:42;12.70;;;8.47;;
17193;SDS011;8713;48.388;10.928;2022-08-19T05:03:51;13.55;;;9.23;;
17193;SDS011;8713;48.388;10.928;2022-08-19T05:05:02;13.63;;;8.73;;
17193;SDS011;8713;48.388;10.928;2022-08-19T05:06:12;14.98;;;9.18;;
17193;SDS011;8713;48.388;10.928;2022-08-19T05:07:24;13.05;;;8.85;;
17193;SDS011;8713;48.388;10.928;2022-08-19T05:08:34;14.55;;;9.30;;
17193;SDS011;8713;48.388;10.928;2022-08-19T05:09:50;13.48;;;9.43;;
17193;SDS011;8713;48.388;10.928;2022-08-19T05:11:00;14.18;;;9.70;;
17193;SDS011;8713;48.388;10.928;2022-08-19T05:12:10;15.23;;;9.93;;
17193;SDS011;8713;48.388;10.928;2022-08-19T05:13:19;13.82;;;9.73;;
17193;SDS011;8713;48.388;10.928;2022-08-19T05:14:28;11.77;;;8.18;;
17193;SDS011;8713;48.388;10.928;2022-08-19T05:15:38;13.20;;;8.88;;
17193;SDS011;8713;48.388;10.928;2022-08-19T05:16:48;13.35;;;8.88;;
17193;SDS011;8713;48.388;10.928;2022-08-19T05:17:57;13.27;;;9.15;;
17193;SDS011;8713;48.388;10.928;2022-08-19T05:19:25;13.25;;;8.63;;
17193;SDS011;8713;48.388;10.928;2022-08-19T05:20:53;14.10;;;8.80;;
17193;SDS011;8713;48.388;10.928;2022-08-19T05:22:21;13.30;;;8.95;;
17193;SDS011;8713;48.388;10.928;2022-08-19T05:23:46;14.77;;;9.13;;
17193;SDS011;8713;48.388;10.928;2022-08-19T05:24:55;12.77;;;8.98;;
17193;SDS011;8713;48.388;10.928;2022-08-19T05:26:05;14.63;;;9.30;;
17193;SDS011;8713;48.388;10.928;2022-08-19T05:27:14;14.60;;;9.30;;
17193;SDS011;8713;48.388;10.928;2022-08-19T05:28:24;13.57;;;8.93;;
17193;SDS011;8713;48.388;10.928;2022-08-19T05:29:34;12.32;;;8.80;;
17193;SDS011;8713;48.388;10.928;2022-08-19T05:30:43;13.00;;;8.52;;
17193;SDS011;8713;48.388;10.928;2022-08-19T05:31:53;13.80;;;8.65;;
17193;SDS011;8713;48.388;10.928;2022-08-19T05:33:03;11.20;;;7.90;;
17193;SDS011;8713;48.388;10.928;2022-08-19T05:34:13;13.48;;;9.18;;
17193;SDS011;8713;48.388;10.928;2022-08-19T05:35:22;14.45;;;9.27;;
17193;SDS011;8713;48.388;10.928;2022-08-19T05:36:34;16.17;;;9.75;;
17193;SDS011;8713;48.388;10.928;2022-08-19T05:37:49;14.02;;;9.57;;
17193;SDS011;8713;48.388;10.928;2022-08-19T05:38:59;15.05;;;10.00;;
17193;SDS011;8713;48.388;10.928;2022-08-19T05:40:09;14.73;;;10.05;;
17193;SDS011;8713;48.388;10.928;2022-08-19T05:41:19;13.90;;;9.43;;
17193;SDS011;8713;48.388;10.928;2022-08-19T05:42:29;15.25;;;10.05;;
17193;SDS011;8713;48.388;10.928;2022-08-19T05:43:39;14.43;;;9.73;;
17193;SDS011;8713;48.388;10.928;2022-08-19T05:44:50;15.15;;;10.15;;
17193;SDS011;8713;48.388;10.928;2022-08-19T05:45:59;13.95;;;9.45;;
17193;SDS011;8713;48.388;10.928;2022-08-19T05:47:09;15.23;;;10.07;;
17193;SDS011;8713;48.388;10.928;2022-08-19T05:48:21;16.08;;;9.40;;
17193;SDS011;8713;48.388;10.928;2022-08-19T05:49:31;14.02;;;9.45;;
17193;SDS011;8713;48.388;10.928;2022-08-19T05:50:41;14.35;;;9.82;;
17193;SDS011;8713;48.388;10.928;2022-08-19T05:51:51;15.82;;;10.40;;
17193;SDS011;8713;48.388;10.928;2022-08-19T05:53:00;14.82;;;10.15;;
17193;SDS011;8713;48.388;10.928;2022-08-19T05:54:10;14.80;;;10.02;;
17193;SDS011;8713;48.388;10.928;2022-08-19T05:55:22;15.80;;;9.98;;
17193;SDS011;8713;48.388;10.928;2022-08-19T05:56:32;14.73;;;9.73;;
17193;SDS011;8713;48.388;10.928;2022-08-19T05:57:45;15.98;;;9.93;;
17193;SDS011;8713;48.388;10.928;2022-08-19T05:58:55;16.67;;;9.55;;
17193;SDS011;8713;48.388;10.928;2022-08-19T06:00:05;15.43;;;9.88;;
17193;SDS011;8713;48.388;10.928;2022-08-19T06:01:20;19.80;;;9.95;;
17193;SDS011;8713;48.388;10.928;2022-08-19T06:02:30;13.90;;;9.40;;
17193;SDS011;8713;48.388;10.928;2022-08-19T06:03:39;16.45;;;10.30;;
17193;SDS011;8713;48.388;10.928;2022-08-19T06:04:49;14.00;;;9.45;;
17193;SDS011;8713;48.388;10.928;2022-08-19T06:05:59;13.75;;;8.90;;
17193;SDS011;8713;48.388;10.928;2022-08-19T06:07:08;14.27;;;9.45;;
17193;SDS011;8713;48.388;10.928;2022-08-19T06:08:18;14.70;;;9.45;;
17193;SDS011;8713;48.388;10.928;2022-08-19T06:09:28;12.45;;;8.48;;
17193;SDS011;8713;48.388;10.928;2022-08-19T06:10:37;15.25;;;9.38;;
17193;SDS011;8713;48.388;10.928;2022-08-19T06:11:51;15.13;;;9.50;;
17193;SDS011;8713;48.388;10.928;2022-08-19T06:13:03;13.05;;;8.82;;
17193;SDS011;8713;48.388;10.928;2022-08-19T06:14:16;19.50;;;10.63;;
17193;SDS011;8713;48.388;10.928;2022-08-19T06:15:29;15.85;;;9.95;;
17193;SDS011;8713;48.388;10.928;2022-08-19T06:16:39;17.63;;;10.27;;
17193;SDS011;8713;48.388;10.928;2022-08-19T06:17:50;15.25;;;9.75;;
17193;SDS011;8713;48.388;10.928;2022-08-19T06:19:00;19.13;;;11.27;;
17193;SDS011;8713;48.388;10.928;2022-08-19T06:20:13;18.02;;;10.20;;
17193;SDS011;8713;48.388;10.928;2022-08-19T06:21:25;16.35;;;10.07;;
17193;SDS011;8713;48.388;10.928;2022-08-19T06:22:37;20.48;;;11.77;;
17193;SDS011;8713;48.388;10.928;2022-08-19T06:23:48;16.30;;;10.75;;
17193;SDS011;8713;48.388;10.928;2022-08-19T06:25:00;17.92;;;11.27;;
17193;SDS011;8713;48.388;10.928;2022-08-19T06:26:11;18.60;;;12.15;;
17193;SDS011;8713;48.388;10.928;2022-08-19T06:27:21;20.15;;;11.52;;
17193;SDS011;8713;48.388;10.928;2022-08-19T06:28:30;18.88;;;11.35;;
17193;SDS011;8713;48.388;10.928;2022-08-19T06:29:41;17.58;;;11.02;;
17193;SDS011;8713;48.388;10.928;2022-08-19T06:30:51;18.70;;;12.20;;
17193;SDS011;8713;48.388;10.928;2022-08-19T06:32:01;19.65;;;11.63;;
17193;SDS011;8713;48.388;10.928;2022-08-19T06:33:12;18.40;;;11.77;;
17193;SDS011;8713;48.388;10.928;2022-08-19T06:34:21;22.60;;;12.10;;
17193;SDS011;8713;48.388;10.928;2022-08-19T06:35:31;17.20;;;10.93;;
17193;SDS011;8713;48.388;10.928;2022-08-19T06:36:42;21.23;;;12.52;;
17193;SDS011;8713;48.388;10.928;2022-08-19T06:37:54;20.17;;;11.55;;
17193;SDS011;8713;48.388;10.928;2022-08-19T06:39:04;20.40;;;12.00;;
17193;SDS011;8713;48.388;10.928;2022-08-19T06:40:17;19.77;;;11.30;;
17193;SDS011;8713;48.388;10.928;2022-08-19T06:41:26;20.73;;;11.48;;
17193;SDS011;8713;48.388;10.928;2022-08-19T06:42:37;19.08;;;11.68;;
17193;SDS011;8713;48.388;10.928;2022-08-19T06:43:50;18.25;;;11.68;;
17193;SDS011;8713;48.388;10.928;2022-08-19T06:45:00;18.05;;;11.18;;
17193;SDS011;8713;48.388;10.928;2022-08-19T06:46:12;19.23;;;12.18;;
17193;SDS011;8713;48.388;10.928;2022-08-19T06:47:23;19.80;;;11.55;;
17193;SDS011;8713;48.388;10.928;2022-08-19T06:48:33;19.05;;;11.43;;
17193;SDS011;8713;48.388;10.928;2022-08-19T06:49:43;21.42;;;12.30;;
17193;SDS011;8713;48.388;10.928;2022-08-19T06:50:52;17.90;;;11.25;;
17193;SDS011;8713;48.388;10.928;2022-08-19T06:52:02;18.38;;;11.13;;
17193;SDS011;8713;48.388;10.928;2022-08-19T06:53:13;16.13;;;10.52;;
17193;SDS011;8713;48.388;10.928;2022-08-19T06:54:22;19.52;;;11.95;;
17193;SDS011;8713;48.388;10.928;2022-08-19T06:55:32;20.27;;;12.00;;
17193;SDS011;8713;48.388;10.928;2022-08-19T06:56:42;21.70;;;12.32;;
17193;SDS011;8713;48.388;10.928;2022-08-19T06:57:51;19.80;;;12.07;;
17193;SDS011;8713;48.388;10.928;2022-08-19T06:59:06;18.88;;;11.07;;
17193;SDS011;8713;48.388;10.928;2022-08-19T07:00:17;20.25;;;12.35;;
17193;SDS011;8713;48.388;10.928;2022-08-19T07:01:27;23.30;;;13.43;;
17193;SDS011;8713;48.388;10.928;2022-08-19T07:02:36;21.08;;;12.50;;
17193;SDS011;8713;48.388;10.928;2022-08-19T07:03:46;21.98;;;13.30;;
17193;SDS011;8713;48.388;10.928;2022-08-19T07:04:56;22.63;;;13.40;;
17193;SDS011;8713;48.388;10.928;2022-08-19T07:06:14;19.20;;;12.15;;
17193;SDS011;8713;48.388;10.928;2022-08-19T07:07:26;22.50;;;12.57;;
17193;SDS011;8713;48.388;10.928;2022-08-19T07:08:36;20.70;;;12.70;;
17193;SDS011;8713;48.388;10.928;2022-08-19T07:09:46;23.30;;;13.20;;
17193;SDS011;8713;48.388;10.928;2022-08-19T07:10:57;22.92;;;13.55;;
17193;SDS011;8713;48.388;10.928;2022-08-19T07:12:07;18.70;;;12.13;;
17193;SDS011;8713;48.388;10.928;2022-08-19T07:13:19;22.73;;;12.40;;
17193;SDS011;8713;48.388;10.928;2022-08-19T07:14:28;22.38;;;13.40;;
17193;SDS011;8713;48.388;10.928;2022-08-19T07:15:38;22.45;;;13.15;;
17193;SDS011;8713;48.388;10.928;2022-08-19T07:16:48;21.95;;;13.55;;
17193;SDS011;8713;48.388;10.928;2022-08-19T07:17:58;21.30;;;13.02;;
17193;SDS011;8713;48.388;10.928;2022-08-19T07:19:08;21.98;;;12.70;;
17193;SDS011;8713;48.388;10.928;2022-08-19T07:20:17;18.02;;;9.55;;
17193;SDS011;8713;48.388;10.928;2022-08-19T07:21:27;16.63;;;8.40;;
17193;SDS011;8713;48.388;10.928;2022-08-19T07:22:37;13.80;;;8.10;;
17193;SDS011;8713;48.388;10.928;2022-08-19T07:23:48;12.13;;;7.68;;
17193;SDS011;8713;48.388;10.928;2022-08-19T07:24:57;15.38;;;10.43;;
17193;SDS011;8713;48.388;10.928;2022-08-19T07:26:08;15.50;;;9.07;;
17193;SDS011;8713;48.388;10.928;2022-08-19T07:27:27;17.10;;;10.63;;
17193;SDS011;8713;48.388;10.928;2022-08-19T07:28:37;17.63;;;10.80;;
17193;SDS011;8713;48.388;10.928;2022-08-19T07:29:47;19.38;;;12.60;;
17193;SDS011;8713;48.388;10.928;2022-08-19T07:30:57;20.05;;;11.63;;
17193;SDS011;8713;48.388;10.928;2022-08-19T07:32:06;17.95;;;11.95;;
17193;SDS011;8713;48.388;10.928;2022-08-19T07:33:17;22.67;;;12.82;;
17193;SDS011;8713;48.388;10.928;2022-08-19T07:34:28;23.00;;;12.38;;
17193;SDS011;8713;48.388;10.928;2022-08-19T07:35:38;19.27;;;11.77;;
17193;SDS011;8713;48.388;10.928;2022-08-19T07:36:48;19.83;;;12.40;;
17193;SDS011;8713;48.388;10.928;2022-08-19T07:37:58;21.77;;;12.55;;
17193;SDS011;8713;48.388;10.928;2022-08-19T07:39:19;21.05;;;10.88;;
17193;SDS011;8713;48.388;10.928;2022-08-19T07:40:32;20.98;;;11.88;;
17193;SDS011;8713;48.388;10.928;2022-08-19T07:41:42;22.98;;;13.48;;
17193;SDS011;8713;48.388;10.928;2022-08-19T07:42:52;20.27;;;11.93;;
17193;SDS011;8713;48.388;10.928;2022-08-19T07:44:01;23.30;;;12.98;;
17193;SDS011;8713;48.388;10.928;2022-08-19T07:45:12;21.70;;;12.88;;
17193;SDS011;8713;48.388;10.928;2022-08-19T07:46:21;22.48;;;13.13;;
17193;SDS011;8713;48.388;10.928;2022-08-19T07:47:31;23.38;;;12.90;;
17193;SDS011;8713;48.388;10.928;2022-08-19T07:48:41;20.20;;;12.35;;
17193;SDS011;8713;48.388;10.928;2022-08-19T07:49:55;23.52;;;12.52;;
17193;SDS011;8713;48.388;10.928;2022-08-19T07:51:05;22.80;;;13.45;;
17193;SDS011;8713;48.388;10.928;2022-08-19T07:52:16;23.27;;;12.70;;
17193;SDS011;8713;48.388;10.928;2022-08-19T07:53:26;22.63;;;13.32;;
17193;SDS011;8713;48.388;10.928;2022-08-19T07:54:36;22.23;;;12.48;;
17193;SDS011;8713;48.388;10.928;2022-08-19T07:55:47;20.38;;;12.85;;
17193;SDS011;8713;48.388;10.928;2022-08-19T07:56:56;23.80;;;13.43;;
17193;SDS011;8713;48.388;10.928;2022-08-19T07:58:06;20.88;;;12.82;;
17193;SDS011;8713;48.388;10.928;2022-08-19T07:59:16;18.95;;;11.68;;
17193;SDS011;8713;48.388;10.928;2022-08-19T08:00:26;21.83;;;11.55;;
17193;SDS011;8713;48.388;10.928;2022-08-19T08:01:35;23.52;;;13.35;;
17193;SDS011;8713;48.388;10.928;2022-08-19T08:02:45;21.92;;;13.70;;
17193;SDS011;8713;48.388;10.928;2022-08-19T08:03:55;24.05;;;13.65;;
17193;SDS011;8713;48.388;10.928;2022-08-19T08:05:24;21.30;;;12.70;;
17193;SDS011;8713;48.388;10.928;2022-08-19T08:06:52;20.40;;;11.90;;
17193;SDS011;8713;48.388;10.928;2022-08-19T08:08:20;21.40;;;12.25;;
17193;SDS011;8713;48.388;10.928;2022-08-19T08:09:48;22.13;;;11.95;;
17193;SDS011;8713;48.388;10.928;2022-08-19T08:10:58;21.17;;;12.35;;
17193;SDS011;8713;48.388;10.928;2022-08-19T08:12:10;21.15;;;11.43;;
17193;SDS011;8713;48.388;10.928;2022-08-19T08:13:24;21.50;;;12.75;;
17193;SDS011;8713;48.388;10.928;2022-08-19T08:14:35;20.65;;;11.82;;
17193;SDS011;8713;48.388;10.928;2022-08-19T08:15:52;20.85;;;12.43;;
17193;SDS011;8713;48.388;10.928;2022-08-19T08:17:02;20.58;;;11.93;;
17193;SDS011;8713;48.388;10.928;2022-08-19T08:18:14;19.27;;;12.13;;
17193;SDS011;8713;48.388;10.928;2022-08-19T08:19:24;21.67;;;12.55;;
17193;SDS011;8713;48.388;10.928;2022-08-19T08:20:35;21.33;;;12.80;;
17193;SDS011;8713;48.388;10.928;2022-08-19T08:21:45;22.08;;;12.52;;
17193;SDS011;8713;48.388;10.928;2022-08-19T08:22:54;22.33;;;12.82;;
17193;SDS011;8713;48.388;10.928;2022-08-19T08:24:23;18.50;;;11.80;;
17193;SDS011;8713;48.388;10.928;2022-08-19T08:25:34;20.13;;;11.70;;
17193;SDS011;8713;48.388;10.928;2022-08-19T08:26:44;23.63;;;13.35;;
17193;SDS011;8713;48.388;10.928;2022-08-19T08:27:54;24.02;;;13.60;;
17193;SDS011;8713;48.388;10.928;2022-08-19T08:29:05;19.98;;;12.13;;
17193;SDS011;8713;48.388;10.928;2022-08-19T08:30:18;23.45;;;13.05;;
17193;SDS011;8713;48.388;10.928;2022-08-19T08:31:30;18.52;;;11.50;;
17193;SDS011;8713;48.388;10.928;2022-08-19T08:32:41;20.55;;;12.05;;
17193;SDS011;8713;48.388;10.928;2022-08-19T08:33:51;20.52;;;12.43;;
17193;SDS011;8713;48.388;10.928;2022-08-19T08:35:00;20.73;;;12.15;;
17193;SDS011;8713;48.388;10.928;2022-08-19T08:36:10;21.30;;;12.90;;
17193;SDS011;8713;48.388;10.928;2022-08-19T08:37:22;19.85;;;11.98;;
17193;SDS011;8713;48.388;10.928;2022-08-19T08:38:32;19.95;;;11.93;;
17193;SDS011;8713;48.388;10.928;2022-08-19T08:39:42;18.92;;;11.10;;
17193;SDS011;8713;48.388;10.928;2022-08-19T08:40:53;19.52;;;11.18;;
17193;SDS011;8713;48.388;10.928;2022-08-19T08:42:24;20.98;;;11.75;;
17193;SDS011;8713;48.388;10.928;2022-08-19T08:43:44;20.67;;;11.98;;
17193;SDS011;8713;48.388;10.928;2022-08-19T08:45:00;22.52;;;12.45;;
17193;SDS011;8713;48.388;10.928;2022-08-19T08:46:13;20.13;;;12.05;;
17193;SDS011;8713;48.388;10.928;2022-08-19T08:47:37;18.88;;;11.18;;
17193;SDS011;8713;48.388;10.928;2022-08-19T08:50:05;19.92;;;11.77;;
17193;SDS011;8713;48.388;10.928;2022-08-19T08:51:26;19.65;;;11.82;;
17193;SDS011;8713;48.388;10.928;2022-08-19T08:52:45;18.40;;;10.88;;
17193;SDS011;8713;48.388;10.928;2022-08-19T08:53:57;21.67;;;12.18;;
17193;SDS011;8713;48.388;10.928;2022-08-19T08:55:10;21.05;;;12.25;;
17193;SDS011;8713;48.388;10.928;2022-08-19T08:56:29;23.33;;;12.45;;
17193;SDS011;8713;48.388;10.928;2022-08-19T08:57:47;23.42;;;12.57;;
17193;SDS011;8713;48.388;10.928;2022-08-19T08:59:04;21.48;;;11.82;;
17193;SDS011;8713;48.388;10.928;2022-08-19T09:01:44;23.98;;;13.10;;
17193;SDS011;8713;48.388;10.928;2022-08-19T09:02:54;24.77;;;13.82;;
17193;SDS011;8713;48.388;10.928;2022-08-19T09:04:05;21.42;;;12.00;;
17193;SDS011;8713;48.388;10.928;2022-08-19T09:05:15;21.02;;;12.70;;
17193;SDS011;8713;48.388;10.928;2022-08-19T09:10:03;22.45;;;12.10;;
17193;SDS011;8713;48.388;10.928;2022-08-19T09:11:31;24.08;;;13.68;;
17193;SDS011;8713;48.388;10.928;2022-08-19T09:13:29;17.05;;;10.25;;
17193;SDS011;8713;48.388;10.928;2022-08-19T09:14:52;17.77;;;10.73;;
17193;SDS011;8713;48.388;10.928;2022-08-19T09:16:10;21.90;;;12.70;;
17193;SDS011;8713;48.388;10.928;2022-08-19T09:17:25;22.92;;;13.38;;
17193;SDS011;8713;48.388;10.928;2022-08-19T09:18:44;19.10;;;11.07;;
17193;SDS011;8713;48.388;10.928;2022-08-19T09:21:16;22.45;;;13.10;;
17193;SDS011;8713;48.388;10.928;2022-08-19T09:22:26;23.02;;;13.18;;
17193;SDS011;8713;48.388;10.928;2022-08-19T09:23:36;21.70;;;12.50;;
17193;SDS011;8713;48.388;10.928;2022-08-19T09:24:46;24.15;;;13.30;;
17193;SDS011;8713;48.388;10.928;2022-08-19T09:25:55;23.75;;;13.95;;
17193;SDS011;8713;48.388;10.928;2022-08-19T09:27:05;25.02;;;14.18;;
17193;SDS011;8713;48.388;10.928;2022-08-19T09:28:14;25.35;;;13.98;;
17193;SDS011;8713;48.388;10.928;2022-08-19T09:29:25;21.73;;;12.52;;
17193;SDS011;8713;48.388;10.928;2022-08-19T09:30:38;23.77;;;14.07;;
17193;SDS011;8713;48.388;10.928;2022-08-19T09:31:49;23.25;;;13.60;;
17193;SDS011;8713;48.388;10.928;2022-08-19T09:32:59;22.25;;;12.98;;
17193;SDS011;8713;48.388;10.928;2022-08-19T09:34:09;21.05;;;12.88;;
17193;SDS011;8713;48.388;10.928;2022-08-19T09:35:19;25.17;;;14.68;;
17193;SDS011;8713;48.388;10.928;2022-08-19T09:36:31;24.48;;;13.88;;
17193;SDS011;8713;48.388;10.928;2022-08-19T09:37:42;24.30;;;14.43;;
17193;SDS011;8713;48.388;10.928;2022-08-19T09:38:52;23.52;;;13.88;;
17193;SDS011;8713;48.388;10.928;2022-08-19T09:40:02;26.45;;;14.82;;
17193;SDS011;8713;48.388;10.928;2022-08-19T09:41:15;24.73;;;13.68;;
17193;SDS011;8713;48.388;10.928;2022-08-19T09:42:26;27.73;;;13.85;;
17193;SDS011;8713;48.388;10.928;2022-08-19T09:43:36;26.08;;;14.85;;
17193;SDS011;8713;48.388;10.928;2022-08-19T09:44:46;23.58;;;13.88;;
17193;SDS011;8713;48.388;10.928;2022-08-19T09:45:55;24.52;;;14.32;;
17193;SDS011;8713;48.388;10.928;2022-08-19T09:47:05;22.95;;;13.30;;
17193;SDS011;8713;48.388;10.928;2022-08-19T09:48:15;23.63;;;13.15;;
17193;SDS011;8713;48.388;10.928;2022-08-19T09:49:25;23.88;;;13.73;;